sensor_id;sensor_type;location;lat;lon;timestamp;P1;durP1;ratioP1;P2;durP2;ratioP2
41436;SDS011;27178;49.460;10.850;2023-06-10T00:00:19;5.28;;;4.88;;
41436;SDS011;27178;49.460;10.850;2023-06-10T00:02:49;5.05;;;4.65;;
41436;SDS011;27178;49.460;10.850;2023-06-10T00:05:18;5.40;;;4.90;;
41436;SDS011;27178;49.460;10.850;2023-06-10T00:07:47;6.10;;;5.50;;
41436;SDS011;27178;49.460;10.850;2023-06-10T00:10:16;5.88;;;5.28;;
41436;SDS011;27178;49.460;10.850;2023-06-10T00:12:44;5.88;;;5.38;;
41436;SDS011;27178;49.460;10.850;2023-06-10T00:15:13;6.30;;;5.80;;
41436;SDS011;27178;49.460;10.850;2023-06-10T00:17:41;7.35;;;6.05;;
41436;SDS011;27178;49.460;10.850;2023-06-10T00:20:12;7.05;;;6.35;;
41436;SDS011;27178;49.460;10.850;2023-06-10T00:22:41;6.57;;;6.07;;
41436;SDS011;27178;49.460;10.850;2023-06-10T00:25:12;6.35;;;5.85;;
41436;SDS011;27178;49.460;10.850;2023-06-10T00:27:41;7.28;;;5.90;;
41436;SDS011;27178;49.460;10.850;2023-06-10T00:30:10;5.88;;;5.38;;
41436;SDS011;27178;49.460;10.850;2023-06-10T00:32:39;6.50;;;5.90;;
41436;SDS011;27178;49.460;10.850;2023-06-10T00:35:07;6.97;;;6.38;;
41436;SDS011;27178;49.460;10.850;2023-06-10T00:37:38;5.95;;;5.45;;
41436;SDS011;27178;49.460;10.850;2023-06-10T00:40:06;5.93;;;5.43;;
41436;SDS011;27178;49.460;10.850;2023-06-10T00:42:36;5.82;;;5.43;;
41436;SDS011;27178;49.460;10.850;2023-06-10T00:45:05;6.88;;;6.28;;
41436;SDS011;27178;49.460;10.850;2023-06-10T00:47:35;6.28;;;5.78;;
41436;SDS011;27178;49.460;10.850;2023-06-10T00:50:04;6.55;;;6.05;;
41436;SDS011;27178;49.460;10.850;2023-06-10T00:52:34;5.57;;;5.13;;
41436;SDS011;27178;49.460;10.850;2023-06-10T00:55:05;6.65;;;5.90;;
41436;SDS011;27178;49.460;10.850;2023-06-10T00:57:36;6.35;;;5.75;;
41436;SDS011;27178;49.460;10.850;2023-06-10T01:00:06;6.28;;;5.70;;
41436;SDS011;27178;49.460;10.850;2023-06-10T01:02:37;5.90;;;5.45;;
41436;SDS011;27178;49.460;10.850;2023-06-10T01:05:05;5.53;;;5.13;;
41436;SDS011;27178;49.460;10.850;2023-06-10T01:07:38;6.40;;;5.90;;
41436;SDS011;27178;49.460;10.850;2023-06-10T01:10:18;6.00;;;5.57;;
41436;SDS011;27178;49.460;10.850;2023-06-10T01:12:52;6.43;;;5.93;;
41436;SDS011;27178;49.460;10.850;2023-06-10T01:15:26;6.57;;;5.97;;
41436;SDS011;27178;49.460;10.850;2023-06-10T01:17:58;6.03;;;5.63;;
41436;SDS011;27178;49.460;10.850;2023-06-10T01:20:28;5.80;;;5.30;;
41436;SDS011;27178;49.460;10.850;2023-06-10T01:23:00;6.13;;;5.63;;
41436;SDS011;27178;49.460;10.850;2023-06-10T01:25:30;6.72;;;6.15;;
41436;SDS011;27178;49.460;10.850;2023-06-10T01:28:04;6.93;;;6.18;;
41436;SDS011;27178;49.460;10.850;2023-06-10T01:30:39;6.63;;;6.03;;
41436;SDS011;27178;49.460;10.850;2023-06-10T01:33:14;7.05;;;6.28;;
41436;SDS011;27178;49.460;10.850;2023-06-10T01:35:46;6.50;;;5.85;;
41436;SDS011;27178;49.460;10.850;2023-06-10T01:38:17;6.10;;;5.55;;
41436;SDS011;27178;49.460;10.850;2023-06-10T01:40:48;5.75;;;5.25;;
41436;SDS011;27178;49.460;10.850;2023-06-10T01:43:18;6.00;;;5.45;;
41436;SDS011;27178;49.460;10.850;2023-06-10T01:45:48;6.78;;;5.28;;
41436;SDS011;27178;49.460;10.850;2023-06-10T01:48:17;6.18;;;5.43;;
41436;SDS011;27178;49.460;10.850;2023-06-10T01:50:45;5.32;;;4.93;;
41436;SDS011;27178;49.460;10.850;2023-06-10T01:53:13;5.55;;;5.00;;
41436;SDS011;27178;49.460;10.850;2023-06-10T01:55:43;4.97;;;4.50;;
41436;SDS011;27178;49.460;10.850;2023-06-10T01:58:12;5.85;;;5.28;;
41436;SDS011;27178;49.460;10.850;2023-06-10T02:00:40;5.63;;;5.13;;
41436;SDS011;27178;49.460;10.850;2023-06-10T02:03:08;5.20;;;4.80;;
41436;SDS011;27178;49.460;10.850;2023-06-10T02:05:37;6.13;;;5.63;;
41436;SDS011;27178;49.460;10.850;2023-06-10T02:08:06;6.43;;;5.47;;
41436;SDS011;27178;49.460;10.850;2023-06-10T02:10:34;5.38;;;4.97;;
41436;SDS011;27178;49.460;10.850;2023-06-10T02:13:04;5.78;;;5.20;;
41436;SDS011;27178;49.460;10.850;2023-06-10T02:15:32;5.55;;;5.15;;
41436;SDS011;27178;49.460;10.850;2023-06-10T02:18:01;5.55;;;5.15;;
41436;SDS011;27178;49.460;10.850;2023-06-10T02:20:30;6.03;;;5.53;;
41436;SDS011;27178;49.460;10.850;2023-06-10T02:22:59;5.47;;;4.97;;
41436;SDS011;27178;49.460;10.850;2023-06-10T02:25:27;5.65;;;5.15;;
41436;SDS011;27178;49.460;10.850;2023-06-10T02:27:56;5.13;;;4.72;;
41436;SDS011;27178;49.460;10.850;2023-06-10T02:30:31;5.45;;;5.00;;
41436;SDS011;27178;49.460;10.850;2023-06-10T02:32:59;9.95;;;5.28;;
41436;SDS011;27178;49.460;10.850;2023-06-10T02:35:28;5.63;;;5.18;;
41436;SDS011;27178;49.460;10.850;2023-06-10T02:37:57;4.68;;;4.35;;
41436;SDS011;27178;49.460;10.850;2023-06-10T02:40:25;5.10;;;4.60;;
41436;SDS011;27178;49.460;10.850;2023-06-10T02:42:53;5.20;;;4.80;;
41436;SDS011;27178;49.460;10.850;2023-06-10T02:45:22;5.80;;;5.32;;
41436;SDS011;27178;49.460;10.850;2023-06-10T02:47:51;5.40;;;5.00;;
41436;SDS011;27178;49.460;10.850;2023-06-10T02:50:20;5.30;;;4.88;;
41436;SDS011;27178;49.460;10.850;2023-06-10T02:52:49;6.28;;;5.78;;
41436;SDS011;27178;49.460;10.850;2023-06-10T02:55:17;5.60;;;5.13;;
41436;SDS011;27178;49.460;10.850;2023-06-10T02:57:45;5.28;;;4.88;;
41436;SDS011;27178;49.460;10.850;2023-06-10T03:00:14;5.43;;;4.97;;
41436;SDS011;27178;49.460;10.850;2023-06-10T03:02:43;5.10;;;4.70;;
41436;SDS011;27178;49.460;10.850;2023-06-10T03:05:14;5.18;;;4.78;;
41436;SDS011;27178;49.460;10.850;2023-06-10T03:07:43;5.78;;;4.72;;
41436;SDS011;27178;49.460;10.850;2023-06-10T03:10:13;4.47;;;4.18;;
41436;SDS011;27178;49.460;10.850;2023-06-10T03:12:41;5.07;;;4.65;;
41436;SDS011;27178;49.460;10.850;2023-06-10T03:15:10;5.15;;;4.70;;
41436;SDS011;27178;49.460;10.850;2023-06-10T03:17:38;5.18;;;4.68;;
41436;SDS011;27178;49.460;10.850;2023-06-10T03:20:07;5.40;;;5.00;;
41436;SDS011;27178;49.460;10.850;2023-06-10T03:22:38;4.93;;;4.53;;
41436;SDS011;27178;49.460;10.850;2023-06-10T03:25:07;4.68;;;4.35;;
41436;SDS011;27178;49.460;10.850;2023-06-10T03:27:41;4.90;;;4.50;;
41436;SDS011;27178;49.460;10.850;2023-06-10T03:30:11;4.55;;;4.20;;
41436;SDS011;27178;49.460;10.850;2023-06-10T03:32:40;5.22;;;4.72;;
41436;SDS011;27178;49.460;10.850;2023-06-10T03:35:10;5.45;;;4.97;;
41436;SDS011;27178;49.460;10.850;2023-06-10T03:37:39;5.93;;;5.43;;
41436;SDS011;27178;49.460;10.850;2023-06-10T03:40:08;5.28;;;4.57;;
41436;SDS011;27178;49.460;10.850;2023-06-10T03:42:37;5.07;;;4.65;;
41436;SDS011;27178;49.460;10.850;2023-06-10T03:45:06;6.00;;;5.40;;
41436;SDS011;27178;49.460;10.850;2023-06-10T03:47:36;6.45;;;5.18;;
41436;SDS011;27178;49.460;10.850;2023-06-10T03:50:07;5.95;;;5.35;;
41436;SDS011;27178;49.460;10.850;2023-06-10T03:52:37;5.47;;;5.03;;
41436;SDS011;27178;49.460;10.850;2023-06-10T03:55:07;5.22;;;4.82;;
41436;SDS011;27178;49.460;10.850;2023-06-10T03:57:38;5.95;;;5.45;;
41436;SDS011;27178;49.460;10.850;2023-06-10T04:00:06;4.88;;;4.47;;
41436;SDS011;27178;49.460;10.850;2023-06-10T04:02:37;5.72;;;5.18;;
41436;SDS011;27178;49.460;10.850;2023-06-10T04:05:08;4.95;;;4.55;;
41436;SDS011;27178;49.460;10.850;2023-06-10T04:07:37;5.05;;;4.65;;
41436;SDS011;27178;49.460;10.850;2023-06-10T04:10:09;4.95;;;4.55;;
41436;SDS011;27178;49.460;10.850;2023-06-10T04:12:38;4.88;;;4.57;;
41436;SDS011;27178;49.460;10.850;2023-06-10T04:15:07;5.63;;;4.90;;
41436;SDS011;27178;49.460;10.850;2023-06-10T04:17:37;5.38;;;4.95;;
41436;SDS011;27178;49.460;10.850;2023-06-10T04:20:06;5.35;;;4.95;;
41436;SDS011;27178;49.460;10.850;2023-06-10T04:22:36;5.72;;;5.22;;
41436;SDS011;27178;49.460;10.850;2023-06-10T04:25:05;5.78;;;5.25;;
41436;SDS011;27178;49.460;10.850;2023-06-10T04:27:36;6.47;;;4.68;;
41436;SDS011;27178;49.460;10.850;2023-06-10T04:30:04;5.55;;;5.15;;
41436;SDS011;27178;49.460;10.850;2023-06-10T04:32:34;5.45;;;5.05;;
41436;SDS011;27178;49.460;10.850;2023-06-10T04:35:02;5.25;;;4.85;;
41436;SDS011;27178;49.460;10.850;2023-06-10T04:37:31;5.75;;;5.25;;
41436;SDS011;27178;49.460;10.850;2023-06-10T04:39:59;5.68;;;5.18;;
41436;SDS011;27178;49.460;10.850;2023-06-10T04:42:28;5.50;;;5.00;;
41436;SDS011;27178;49.460;10.850;2023-06-10T04:44:58;5.00;;;4.60;;
41436;SDS011;27178;49.460;10.850;2023-06-10T04:47:26;5.82;;;5.32;;
41436;SDS011;27178;49.460;10.850;2023-06-10T04:49:55;5.57;;;5.07;;
41436;SDS011;27178;49.460;10.850;2023-06-10T04:52:23;5.35;;;4.90;;
41436;SDS011;27178;49.460;10.850;2023-06-10T04:54:52;5.75;;;5.25;;
41436;SDS011;27178;49.460;10.850;2023-06-10T04:57:20;6.00;;;4.88;;
41436;SDS011;27178;49.460;10.850;2023-06-10T04:59:49;5.53;;;5.13;;
41436;SDS011;27178;49.460;10.850;2023-06-10T05:02:18;5.50;;;5.10;;
41436;SDS011;27178;49.460;10.850;2023-06-10T05:04:47;5.88;;;5.47;;
41436;SDS011;27178;49.460;10.850;2023-06-10T05:07:15;5.78;;;5.38;;
41436;SDS011;27178;49.460;10.850;2023-06-10T05:09:44;6.07;;;5.57;;
41436;SDS011;27178;49.460;10.850;2023-06-10T05:12:13;5.97;;;5.40;;
41436;SDS011;27178;49.460;10.850;2023-06-10T05:14:41;6.47;;;5.88;;
41436;SDS011;27178;49.460;10.850;2023-06-10T05:17:09;5.38;;;4.90;;
41436;SDS011;27178;49.460;10.850;2023-06-10T05:19:41;6.07;;;5.57;;
41436;SDS011;27178;49.460;10.850;2023-06-10T05:22:10;6.28;;;5.05;;
41436;SDS011;27178;49.460;10.850;2023-06-10T05:24:40;5.60;;;5.18;;
41436;SDS011;27178;49.460;10.850;2023-06-10T05:27:09;5.45;;;5.05;;
41436;SDS011;27178;49.460;10.850;2023-06-10T05:29:37;5.50;;;5.10;;
41436;SDS011;27178;49.460;10.850;2023-06-10T05:32:06;5.75;;;5.32;;
41436;SDS011;27178;49.460;10.850;2023-06-10T05:34:36;7.35;;;5.55;;
41436;SDS011;27178;49.460;10.850;2023-06-10T05:37:06;5.72;;;5.30;;
41436;SDS011;27178;49.460;10.850;2023-06-10T05:39:35;6.72;;;6.03;;
41436;SDS011;27178;49.460;10.850;2023-06-10T05:42:06;6.05;;;5.57;;
41436;SDS011;27178;49.460;10.850;2023-06-10T05:44:34;7.18;;;6.57;;
41436;SDS011;27178;49.460;10.850;2023-06-10T05:47:04;6.05;;;5.57;;
41436;SDS011;27178;49.460;10.850;2023-06-10T05:49:32;6.40;;;5.90;;
41436;SDS011;27178;49.460;10.850;2023-06-10T05:52:01;6.15;;;5.55;;
41436;SDS011;27178;49.460;10.850;2023-06-10T05:54:31;6.97;;;6.28;;
41436;SDS011;27178;49.460;10.850;2023-06-10T05:56:59;6.30;;;5.80;;
41436;SDS011;27178;49.460;10.850;2023-06-10T05:59:28;6.28;;;5.78;;
41436;SDS011;27178;49.460;10.850;2023-06-10T06:01:56;8.13;;;6.47;;
41436;SDS011;27178;49.460;10.850;2023-06-10T06:04:25;6.55;;;6.05;;
41436;SDS011;27178;49.460;10.850;2023-06-10T06:06:54;6.00;;;5.40;;
41436;SDS011;27178;49.460;10.850;2023-06-10T06:09:23;6.55;;;6.00;;
41436;SDS011;27178;49.460;10.850;2023-06-10T06:11:52;6.50;;;5.97;;
41436;SDS011;27178;49.460;10.850;2023-06-10T06:14:21;6.30;;;5.80;;
41436;SDS011;27178;49.460;10.850;2023-06-10T06:16:49;5.60;;;5.15;;
41436;SDS011;27178;49.460;10.850;2023-06-10T06:19:18;5.70;;;5.30;;
41436;SDS011;27178;49.460;10.850;2023-06-10T06:21:46;6.60;;;6.00;;
41436;SDS011;27178;49.460;10.850;2023-06-10T06:24:16;6.68;;;6.07;;
41436;SDS011;27178;49.460;10.850;2023-06-10T06:26:45;6.50;;;5.80;;
41436;SDS011;27178;49.460;10.850;2023-06-10T06:29:14;5.50;;;5.10;;
41436;SDS011;27178;49.460;10.850;2023-06-10T06:31:43;6.10;;;5.50;;
41436;SDS011;27178;49.460;10.850;2023-06-10T06:34:11;5.63;;;5.18;;
41436;SDS011;27178;49.460;10.850;2023-06-10T06:36:42;5.75;;;5.25;;
41436;SDS011;27178;49.460;10.850;2023-06-10T06:39:10;5.82;;;5.43;;
41436;SDS011;27178;49.460;10.850;2023-06-10T06:41:38;5.18;;;4.78;;
41436;SDS011;27178;49.460;10.850;2023-06-10T06:44:06;6.07;;;5.63;;
41436;SDS011;27178;49.460;10.850;2023-06-10T06:46:36;5.32;;;4.93;;
41436;SDS011;27178;49.460;10.850;2023-06-10T06:49:04;5.65;;;5.25;;
41436;SDS011;27178;49.460;10.850;2023-06-10T06:51:33;5.47;;;5.07;;
41436;SDS011;27178;49.460;10.850;2023-06-10T06:54:01;6.30;;;5.75;;
41436;SDS011;27178;49.460;10.850;2023-06-10T06:56:32;6.13;;;5.63;;
41436;SDS011;27178;49.460;10.850;2023-06-10T06:59:00;6.85;;;5.90;;
41436;SDS011;27178;49.460;10.850;2023-06-10T07:01:29;6.18;;;5.68;;
41436;SDS011;27178;49.460;10.850;2023-06-10T07:03:58;6.05;;;5.53;;
41436;SDS011;27178;49.460;10.850;2023-06-10T07:06:27;6.20;;;5.70;;
41436;SDS011;27178;49.460;10.850;2023-06-10T07:08:55;6.10;;;5.70;;
41436;SDS011;27178;49.460;10.850;2023-06-10T07:11:24;5.80;;;5.40;;
41436;SDS011;27178;49.460;10.850;2023-06-10T07:13:52;5.70;;;5.20;;
41436;SDS011;27178;49.460;10.850;2023-06-10T07:16:21;5.60;;;5.20;;
41436;SDS011;27178;49.460;10.850;2023-06-10T07:18:49;5.97;;;5.45;;
41436;SDS011;27178;49.460;10.850;2023-06-10T07:21:19;5.25;;;4.85;;
41436;SDS011;27178;49.460;10.850;2023-06-10T07:23:48;5.68;;;5.20;;
41436;SDS011;27178;49.460;10.850;2023-06-10T07:26:21;5.32;;;4.93;;
41436;SDS011;27178;49.460;10.850;2023-06-10T07:28:49;5.70;;;5.20;;
41436;SDS011;27178;49.460;10.850;2023-06-10T07:31:18;5.55;;;5.05;;
41436;SDS011;27178;49.460;10.850;2023-06-10T07:33:46;5.32;;;4.93;;
41436;SDS011;27178;49.460;10.850;2023-06-10T07:36:15;5.53;;;5.13;;
41436;SDS011;27178;49.460;10.850;2023-06-10T07:38:45;5.10;;;4.70;;
41436;SDS011;27178;49.460;10.850;2023-06-10T07:41:13;5.53;;;5.03;;
41436;SDS011;27178;49.460;10.850;2023-06-10T07:43:44;5.68;;;5.20;;
41436;SDS011;27178;49.460;10.850;2023-06-10T07:46:12;5.20;;;4.80;;
41436;SDS011;27178;49.460;10.850;2023-06-10T07:48:41;5.25;;;4.75;;
41436;SDS011;27178;49.460;10.850;2023-06-10T07:51:10;6.18;;;5.68;;
41436;SDS011;27178;49.460;10.850;2023-06-10T07:53:38;5.40;;;5.00;;
41436;SDS011;27178;49.460;10.850;2023-06-10T07:56:08;5.65;;;4.88;;
41436;SDS011;27178;49.460;10.850;2023-06-10T07:58:36;5.57;;;5.07;;
41436;SDS011;27178;49.460;10.850;2023-06-10T08:01:05;4.80;;;4.50;;
41436;SDS011;27178;49.460;10.850;2023-06-10T08:03:33;5.40;;;4.90;;
41436;SDS011;27178;49.460;10.850;2023-06-10T08:06:02;5.65;;;5.25;;
41436;SDS011;27178;49.460;10.850;2023-06-10T08:08:32;5.88;;;5.25;;
41436;SDS011;27178;49.460;10.850;2023-06-10T08:11:01;5.00;;;4.70;;
41436;SDS011;27178;49.460;10.850;2023-06-10T08:13:31;5.25;;;4.85;;
41436;SDS011;27178;49.460;10.850;2023-06-10T08:15:59;5.35;;;4.82;;
41436;SDS011;27178;49.460;10.850;2023-06-10T08:18:27;5.13;;;4.63;;
41436;SDS011;27178;49.460;10.850;2023-06-10T08:20:56;5.82;;;4.68;;
41436;SDS011;27178;49.460;10.850;2023-06-10T08:23:24;4.68;;;4.35;;
41436;SDS011;27178;49.460;10.850;2023-06-10T08:25:53;4.63;;;4.22;;
41436;SDS011;27178;49.460;10.850;2023-06-10T08:28:22;4.13;;;3.83;;
41436;SDS011;27178;49.460;10.850;2023-06-10T08:30:52;4.70;;;4.30;;
41436;SDS011;27178;49.460;10.850;2023-06-10T08:33:23;4.38;;;4.03;;
41436;SDS011;27178;49.460;10.850;2023-06-10T08:35:51;5.30;;;4.80;;
41436;SDS011;27178;49.460;10.850;2023-06-10T08:38:19;5.05;;;4.55;;
41436;SDS011;27178;49.460;10.850;2023-06-10T08:40:47;5.97;;;5.47;;
41436;SDS011;27178;49.460;10.850;2023-06-10T08:43:17;4.88;;;4.47;;
41436;SDS011;27178;49.460;10.850;2023-06-10T08:45:50;5.28;;;4.80;;
41436;SDS011;27178;49.460;10.850;2023-06-10T08:48:24;4.35;;;4.05;;
41436;SDS011;27178;49.460;10.850;2023-06-10T08:50:55;4.50;;;4.05;;
41436;SDS011;27178;49.460;10.850;2023-06-10T08:53:24;4.00;;;3.70;;
41436;SDS011;27178;49.460;10.850;2023-06-10T08:55:55;3.75;;;3.45;;
41436;SDS011;27178;49.460;10.850;2023-06-10T08:58:28;4.05;;;3.58;;
41436;SDS011;27178;49.460;10.850;2023-06-10T09:00:58;4.32;;;3.42;;
41436;SDS011;27178;49.460;10.850;2023-06-10T09:03:27;3.45;;;3.15;;
41436;SDS011;27178;49.460;10.850;2023-06-10T09:05:56;3.60;;;3.30;;
41436;SDS011;27178;49.460;10.850;2023-06-10T09:08:25;3.20;;;3.00;;
41436;SDS011;27178;49.460;10.850;2023-06-10T09:10:54;3.17;;;2.97;;
41436;SDS011;27178;49.460;10.850;2023-06-10T09:13:22;3.65;;;3.10;;
41436;SDS011;27178;49.460;10.850;2023-06-10T09:15:51;3.15;;;2.90;;
41436;SDS011;27178;49.460;10.850;2023-06-10T09:18:20;3.10;;;2.90;;
41436;SDS011;27178;49.460;10.850;2023-06-10T09:20:49;3.33;;;3.03;;
41436;SDS011;27178;49.460;10.850;2023-06-10T09:23:17;3.88;;;2.85;;
41436;SDS011;27178;49.460;10.850;2023-06-10T09:25:48;3.78;;;3.58;;
41436;SDS011;27178;49.460;10.850;2023-06-10T09:28:24;3.35;;;3.15;;
41436;SDS011;27178;49.460;10.850;2023-06-10T09:31:01;3.55;;;3.25;;
41436;SDS011;27178;49.460;10.850;2023-06-10T09:33:32;3.10;;;2.90;;
41436;SDS011;27178;49.460;10.850;2023-06-10T09:36:04;3.38;;;3.08;;
41436;SDS011;27178;49.460;10.850;2023-06-10T09:38:33;3.50;;;2.78;;
41436;SDS011;27178;49.460;10.850;2023-06-10T09:41:02;2.95;;;2.75;;
41436;SDS011;27178;49.460;10.850;2023-06-10T09:43:38;2.97;;;2.78;;
41436;SDS011;27178;49.460;10.850;2023-06-10T09:46:13;2.67;;;2.47;;
41436;SDS011;27178;49.460;10.850;2023-06-10T09:48:46;3.08;;;2.88;;
41436;SDS011;27178;49.460;10.850;2023-06-10T09:51:15;2.35;;;2.25;;
41436;SDS011;27178;49.460;10.850;2023-06-10T09:53:47;3.25;;;2.70;;
41436;SDS011;27178;49.460;10.850;2023-06-10T09:56:17;2.88;;;2.67;;
41436;SDS011;27178;49.460;10.850;2023-06-10T09:58:45;2.72;;;2.53;;
41436;SDS011;27178;49.460;10.850;2023-06-10T10:01:14;3.40;;;2.78;;
41436;SDS011;27178;49.460;10.850;2023-06-10T10:03:45;3.05;;;2.85;;
41436;SDS011;27178;49.460;10.850;2023-06-10T10:06:14;2.92;;;2.50;;
41436;SDS011;27178;49.460;10.850;2023-06-10T10:08:43;3.25;;;2.60;;
41436;SDS011;27178;49.460;10.850;2023-06-10T10:11:12;2.60;;;2.40;;
41436;SDS011;27178;49.460;10.850;2023-06-10T10:13:44;2.58;;;2.42;;
41436;SDS011;27178;49.460;10.850;2023-06-10T10:16:16;3.72;;;2.50;;
41436;SDS011;27178;49.460;10.850;2023-06-10T10:18:49;2.65;;;2.45;;
41436;SDS011;27178;49.460;10.850;2023-06-10T10:21:22;2.75;;;2.45;;
41436;SDS011;27178;49.460;10.850;2023-06-10T10:23:53;3.05;;;2.85;;
41436;SDS011;27178;49.460;10.850;2023-06-10T10:26:29;3.70;;;2.90;;
41436;SDS011;27178;49.460;10.850;2023-06-10T10:29:03;2.90;;;2.70;;
41436;SDS011;27178;49.460;10.850;2023-06-10T10:31:37;2.90;;;2.70;;
41436;SDS011;27178;49.460;10.850;2023-06-10T10:34:09;3.60;;;2.65;;
41436;SDS011;27178;49.460;10.850;2023-06-10T10:36:41;3.13;;;2.92;;
41436;SDS011;27178;49.460;10.850;2023-06-10T10:39:10;3.20;;;2.97;;
41436;SDS011;27178;49.460;10.850;2023-06-10T10:41:39;2.83;;;2.63;;
41436;SDS011;27178;49.460;10.850;2023-06-10T10:44:07;3.67;;;3.10;;
41436;SDS011;27178;49.460;10.850;2023-06-10T10:46:44;3.17;;;2.90;;
41436;SDS011;27178;49.460;10.850;2023-06-10T10:49:18;3.38;;;3.08;;
41436;SDS011;27178;49.460;10.850;2023-06-10T10:51:57;4.10;;;2.70;;
41436;SDS011;27178;49.460;10.850;2023-06-10T10:54:30;2.78;;;2.58;;
41436;SDS011;27178;49.460;10.850;2023-06-10T10:59:51;3.17;;;2.97;;
41436;SDS011;27178;49.460;10.850;2023-06-10T11:05:13;2.83;;;2.63;;
41436;SDS011;27178;49.460;10.850;2023-06-10T11:07:51;2.78;;;2.58;;
41436;SDS011;27178;49.460;10.850;2023-06-10T11:10:28;2.65;;;2.45;;
41436;SDS011;27178;49.460;10.850;2023-06-10T11:12:59;2.97;;;2.78;;
41436;SDS011;27178;49.460;10.850;2023-06-10T11:15:28;2.47;;;2.28;;
41436;SDS011;27178;49.460;10.850;2023-06-10T11:18:07;2.67;;;2.47;;
41436;SDS011;27178;49.460;10.850;2023-06-10T11:20:45;2.42;;;2.30;;
41436;SDS011;27178;49.460;10.850;2023-06-10T11:23:25;2.72;;;2.53;;
41436;SDS011;27178;49.460;10.850;2023-06-10T11:26:21;3.15;;;2.90;;
41436;SDS011;27178;49.460;10.850;2023-06-10T11:29:06;3.20;;;3.00;;
41436;SDS011;27178;49.460;10.850;2023-06-10T11:31:40;3.50;;;3.20;;
41436;SDS011;27178;49.460;10.850;2023-06-10T11:34:09;3.25;;;3.03;;
41436;SDS011;27178;49.460;10.850;2023-06-10T11:36:40;3.13;;;2.88;;
41436;SDS011;27178;49.460;10.850;2023-06-10T11:39:12;3.10;;;2.88;;
41436;SDS011;27178;49.460;10.850;2023-06-10T11:41:40;3.38;;;3.08;;
41436;SDS011;27178;49.460;10.850;2023-06-10T11:44:09;2.92;;;2.72;;
41436;SDS011;27178;49.460;10.850;2023-06-10T11:46:41;2.88;;;2.67;;
41436;SDS011;27178;49.460;10.850;2023-06-10T11:49:10;3.20;;;3.00;;
41436;SDS011;27178;49.460;10.850;2023-06-10T11:51:40;4.40;;;2.90;;
41436;SDS011;27178;49.460;10.850;2023-06-10T11:54:16;3.10;;;2.90;;
41436;SDS011;27178;49.460;10.850;2023-06-10T11:56:45;3.25;;;2.95;;
41436;SDS011;27178;49.460;10.850;2023-06-10T11:59:13;2.92;;;2.72;;
41436;SDS011;27178;49.460;10.850;2023-06-10T12:01:42;2.60;;;2.42;;
41436;SDS011;27178;49.460;10.850;2023-06-10T12:04:13;2.97;;;2.78;;
41436;SDS011;27178;49.460;10.850;2023-06-10T12:06:46;3.10;;;2.90;;
41436;SDS011;27178;49.460;10.850;2023-06-10T12:09:17;3.15;;;2.95;;
41436;SDS011;27178;49.460;10.850;2023-06-10T12:11:53;3.00;;;2.80;;
41436;SDS011;27178;49.460;10.850;2023-06-10T12:17:20;3.45;;;2.80;;
41436;SDS011;27178;49.460;10.850;2023-06-10T12:19:49;2.95;;;2.75;;
41436;SDS011;27178;49.460;10.850;2023-06-10T12:22:19;3.65;;;3.00;;
41436;SDS011;27178;49.460;10.850;2023-06-10T12:24:59;3.30;;;3.05;;
41436;SDS011;27178;49.460;10.850;2023-06-10T12:27:30;3.20;;;3.00;;
41436;SDS011;27178;49.460;10.850;2023-06-10T12:29:58;3.17;;;2.88;;
41436;SDS011;27178;49.460;10.850;2023-06-10T12:32:36;2.95;;;2.75;;
41436;SDS011;27178;49.460;10.850;2023-06-10T12:35:05;3.60;;;3.30;;
41436;SDS011;27178;49.460;10.850;2023-06-10T12:37:36;4.68;;;4.30;;
41436;SDS011;27178;49.460;10.850;2023-06-10T12:40:09;4.20;;;3.90;;
41436;SDS011;27178;49.460;10.850;2023-06-10T12:42:38;5.95;;;5.55;;
41436;SDS011;27178;49.460;10.850;2023-06-10T12:45:08;6.22;;;5.72;;
41436;SDS011;27178;49.460;10.850;2023-06-10T12:47:39;10.60;;;9.80;;
41436;SDS011;27178;49.460;10.850;2023-06-10T12:50:08;6.03;;;5.63;;
41436;SDS011;27178;49.460;10.850;2023-06-10T12:52:40;4.25;;;3.95;;
41436;SDS011;27178;49.460;10.850;2023-06-10T12:55:09;3.30;;;3.10;;
41436;SDS011;27178;49.460;10.850;2023-06-10T12:57:47;2.90;;;2.70;;
41436;SDS011;27178;49.460;10.850;2023-06-10T13:00:16;3.17;;;2.97;;
41436;SDS011;27178;49.460;10.850;2023-06-10T13:02:46;2.85;;;2.65;;
41436;SDS011;27178;49.460;10.850;2023-06-10T13:05:15;2.95;;;2.75;;
41436;SDS011;27178;49.460;10.850;2023-06-10T13:07:46;2.78;;;2.58;;
41436;SDS011;27178;49.460;10.850;2023-06-10T13:10:15;2.28;;;2.17;;
41436;SDS011;27178;49.460;10.850;2023-06-10T13:12:48;2.67;;;2.47;;
41436;SDS011;27178;49.460;10.850;2023-06-10T13:15:16;2.60;;;2.40;;
41436;SDS011;27178;49.460;10.850;2023-06-10T13:17:45;2.88;;;2.67;;
41436;SDS011;27178;49.460;10.850;2023-06-10T13:20:18;3.38;;;3.17;;
41436;SDS011;27178;49.460;10.850;2023-06-10T13:22:49;3.80;;;3.50;;
41436;SDS011;27178;49.460;10.850;2023-06-10T13:25:17;3.03;;;2.72;;
41436;SDS011;27178;49.460;10.850;2023-06-10T13:27:45;2.72;;;2.53;;
41436;SDS011;27178;49.460;10.850;2023-06-10T13:30:14;2.95;;;2.75;;
41436;SDS011;27178;49.460;10.850;2023-06-10T13:32:42;2.30;;;2.20;;
41436;SDS011;27178;49.460;10.850;2023-06-10T13:35:11;2.38;;;2.17;;
41436;SDS011;27178;49.460;10.850;2023-06-10T13:37:39;2.88;;;2.67;;
41436;SDS011;27178;49.460;10.850;2023-06-10T13:40:09;11.60;;;10.68;;
41436;SDS011;27178;49.460;10.850;2023-06-10T13:42:38;18.70;;;17.20;;
41436;SDS011;27178;49.460;10.850;2023-06-10T13:45:07;16.40;;;15.07;;
41436;SDS011;27178;49.460;10.850;2023-06-10T13:47:37;11.45;;;10.45;;
41436;SDS011;27178;49.460;10.850;2023-06-10T13:50:06;7.45;;;6.75;;
41436;SDS011;27178;49.460;10.850;2023-06-10T13:52:35;4.93;;;4.53;;
41436;SDS011;27178;49.460;10.850;2023-06-10T13:55:04;6.63;;;3.05;;
41436;SDS011;27178;49.460;10.850;2023-06-10T13:57:35;3.35;;;3.05;;
41436;SDS011;27178;49.460;10.850;2023-06-10T14:00:04;2.90;;;2.50;;
41436;SDS011;27178;49.460;10.850;2023-06-10T14:02:33;2.85;;;2.65;;
41436;SDS011;27178;49.460;10.850;2023-06-10T14:05:01;2.60;;;2.40;;
41436;SDS011;27178;49.460;10.850;2023-06-10T14:07:32;2.83;;;2.63;;
41436;SDS011;27178;49.460;10.850;2023-06-10T14:10:00;2.92;;;2.72;;
41436;SDS011;27178;49.460;10.850;2023-06-10T14:12:28;4.20;;;3.80;;
41436;SDS011;27178;49.460;10.850;2023-06-10T14:14:58;3.97;;;3.58;;
41436;SDS011;27178;49.460;10.850;2023-06-10T14:17:26;44.60;;;40.75;;
41436;SDS011;27178;49.460;10.850;2023-06-10T14:19:55;19.33;;;17.52;;
41436;SDS011;27178;49.460;10.850;2023-06-10T14:22:23;10.13;;;9.23;;
41436;SDS011;27178;49.460;10.850;2023-06-10T14:24:52;6.57;;;5.97;;
41436;SDS011;27178;49.460;10.850;2023-06-10T14:27:20;10.80;;;9.95;;
41436;SDS011;27178;49.460;10.850;2023-06-10T14:29:49;16.15;;;14.63;;
41436;SDS011;27178;49.460;10.850;2023-06-10T14:32:19;16.48;;;14.77;;
41436;SDS011;27178;49.460;10.850;2023-06-10T14:34:48;14.85;;;13.63;;
41436;SDS011;27178;49.460;10.850;2023-06-10T14:37:16;332.90;;;271.95;;
41436;SDS011;27178;49.460;10.850;2023-06-10T14:39:45;394.90;;;322.38;;
41436;SDS011;27178;49.460;10.850;2023-06-10T14:42:13;258.10;;;215.02;;
41436;SDS011;27178;49.460;10.850;2023-06-10T14:44:41;133.23;;;119.07;;
41436;SDS011;27178;49.460;10.850;2023-06-10T14:47:09;177.57;;;160.43;;
41436;SDS011;27178;49.460;10.850;2023-06-10T14:49:39;541.53;;;488.85;;
41436;SDS011;27178;49.460;10.850;2023-06-10T14:52:11;523.90;;;472.42;;
41436;SDS011;27178;49.460;10.850;2023-06-10T14:54:39;329.48;;;297.92;;
41436;SDS011;27178;49.460;10.850;2023-06-10T14:57:07;150.65;;;137.00;;